createdAt,value
2023-03-19T00:01:56.244Z,0
2023-03-19T00:03:01.334Z,0
2023-03-19T00:04:04.805Z,0
2023-03-19T00:05:08.295Z,0
2023-03-19T00:07:14.652Z,0
2023-03-19T00:08:17.466Z,0
2023-03-19T00:09:21.291Z,0
2023-03-19T00:10:23.575Z,0
2023-03-19T00:12:30.437Z,0
2023-03-19T00:13:33.305Z,0
2023-03-19T00:14:36.451Z,0
2023-03-19T00:15:39.932Z,0
2023-03-19T00:17:47.360Z,0
2023-03-19T00:19:53.954Z,0
2023-03-19T00:20:57.041Z,0
2023-03-19T00:23:04.920Z,0
2023-03-19T00:25:11.891Z,0
2023-03-19T00:27:18.594Z,0
2023-03-19T00:28:21.532Z,0
2023-03-19T00:30:27.476Z,0
2023-03-19T00:32:34.695Z,0
2023-03-19T00:33:37.450Z,0
2023-03-19T00:34:41.132Z,0
2023-03-19T00:35:44.724Z,0
2023-03-19T00:37:51.663Z,0
2023-03-19T00:38:54.385Z,0
2023-03-19T00:39:57.889Z,0
2023-03-19T00:41:00.905Z,0
2023-03-19T00:43:06.204Z,0
2023-03-19T00:44:08.744Z,0
2023-03-19T00:45:11.612Z,0
2023-03-19T00:46:15.185Z,0
2023-03-19T00:48:21.718Z,0
2023-03-19T00:50:28.206Z,0
2023-03-19T00:51:31.241Z,0
2023-03-19T00:53:38.506Z,0
2023-03-19T00:55:44.487Z,0
2023-03-19T00:57:51.017Z,0
2023-03-19T00:58:54.019Z,0
2023-03-19T01:01:01.355Z,0
2023-03-19T01:03:08.498Z,0
2023-03-19T01:05:15.485Z,0
2023-03-19T01:06:18.206Z,0
2023-03-19T01:07:21.239Z,0
2023-03-19T01:08:24.350Z,0
2023-03-19T01:10:31.948Z,0
2023-03-19T01:12:38.041Z,0
2023-03-19T01:13:41.320Z,0
2023-03-19T01:15:47.815Z,0
2023-03-19T01:17:54.491Z,0
2023-03-19T01:20:00.408Z,0
2023-03-19T01:21:03.450Z,0
2023-03-19T01:23:09.658Z,0
2023-03-19T01:25:16.328Z,0
2023-03-19T01:27:21.963Z,0
2023-03-19T01:28:24.982Z,0
2023-03-19T01:30:31.802Z,0
2023-03-19T01:32:39.830Z,0
2023-03-19T01:34:46.031Z,0
2023-03-19T01:35:49.972Z,0
2023-03-19T01:37:56.532Z,0
2023-03-19T01:40:03.765Z,0
2023-03-19T01:42:10.962Z,0
2023-03-19T01:43:13.740Z,0
2023-03-19T01:45:19.885Z,0
2023-03-19T01:47:26.143Z,0
2023-03-19T01:48:29.175Z,0
2023-03-19T01:50:36.897Z,0
2023-03-19T01:52:43.076Z,0
2023-03-19T01:53:46.246Z,0
2023-03-19T01:54:49.443Z,0
2023-03-19T01:55:53.017Z,0
2023-03-19T01:57:59.758Z,0
2023-03-19T01:59:02.274Z,0
2023-03-19T02:01:08.255Z,0
2023-03-19T02:03:13.608Z,0
2023-03-19T02:04:17.038Z,0
2023-03-19T02:06:23.590Z,0
2023-03-19T02:08:29.886Z,0
2023-03-19T02:10:37.660Z,0
2023-03-19T02:11:41.047Z,0
2023-03-19T02:13:48.361Z,0
2023-03-19T02:15:55.040Z,0
2023-03-19T02:18:01.263Z,0
2023-03-19T02:19:04.649Z,0
2023-03-19T02:21:10.816Z,0
2023-03-19T02:23:16.428Z,0
2023-03-19T02:24:19.201Z,0
2023-03-19T02:26:24.874Z,0
2023-03-19T02:28:32.844Z,0
2023-03-19T02:30:38.716Z,0
2023-03-19T02:31:41.731Z,0
2023-03-19T02:33:48.356Z,0
2023-03-19T02:35:54.245Z,0
2023-03-19T02:36:57.226Z,0
2023-03-19T02:39:03.841Z,0
2023-03-19T02:41:08.949Z,0
2023-03-19T02:42:12.100Z,0
2023-03-19T02:43:15.844Z,0
2023-03-19T02:44:19.480Z,0
2023-03-19T02:46:27.049Z,0
2023-03-19T02:48:33.037Z,0
2023-03-19T02:49:35.579Z,0
2023-03-19T02:51:41.717Z,0
2023-03-19T02:53:48.375Z,0
2023-03-19T02:55:54.318Z,0
2023-03-19T02:56:57.105Z,0
2023-03-19T02:59:03.996Z,0
2023-03-19T03:01:11.307Z,0
2023-03-19T03:03:18.191Z,0
2023-03-19T03:04:21.241Z,0
2023-03-19T03:06:28.794Z,0
2023-03-19T03:08:33.763Z,0
2023-03-19T03:10:40.143Z,0
2023-03-19T03:11:43.550Z,0
2023-03-19T03:13:49.984Z,0
2023-03-19T03:15:57.420Z,0
2023-03-19T03:18:03.805Z,0
2023-03-19T03:19:06.979Z,0
2023-03-19T03:21:12.216Z,0
2023-03-19T03:23:18.644Z,0
2023-03-19T03:25:23.909Z,0
2023-03-19T03:26:27.528Z,0
2023-03-19T03:28:33.910Z,0
2023-03-19T03:30:40.178Z,0
2023-03-19T03:32:48.008Z,0
2023-03-19T03:33:51.194Z,0
2023-03-19T03:35:57.486Z,0
2023-03-19T03:38:03.566Z,0
2023-03-19T03:40:09.558Z,0
2023-03-19T03:41:13.041Z,0
2023-03-19T03:43:18.881Z,0
2023-03-19T03:45:25.276Z,0
2023-03-19T03:47:32.907Z,0
2023-03-19T03:48:35.901Z,0
2023-03-19T03:49:39.261Z,0
2023-03-19T03:50:42.326Z,0
2023-03-19T03:52:48.626Z,0
2023-03-19T03:53:51.365Z,0
2023-03-19T03:54:54.628Z,0
2023-03-19T03:55:57.914Z,0
2023-03-19T03:57:05.613Z,0
2023-03-19T03:58:08.490Z,0
2023-03-19T04:00:15.018Z,0
2023-03-19T04:01:18.590Z,0
2023-03-19T04:03:27.556Z,0
2023-03-19T04:05:34.271Z,0
2023-03-19T04:07:40.571Z,0
2023-03-19T04:08:43.291Z,0
2023-03-19T04:10:49.157Z,0
2023-03-19T04:12:57.234Z,0
2023-03-19T04:15:04.024Z,0
2023-03-19T04:16:07.049Z,0
2023-03-19T04:18:13.925Z,0
2023-03-19T04:20:20.609Z,0
2023-03-19T04:22:27.310Z,0
2023-03-19T04:23:31.023Z,0
2023-03-19T04:24:34.183Z,0
2023-03-19T04:25:37.176Z,0
2023-03-19T04:27:43.340Z,0
2023-03-19T04:28:46.706Z,0
2023-03-19T04:29:50.241Z,0
2023-03-19T04:30:53.562Z,0
2023-03-19T04:33:00.218Z,0
2023-03-19T04:34:03.063Z,0
2023-03-19T04:35:06.650Z,0
2023-03-19T04:36:09.687Z,0
2023-03-19T04:38:15.368Z,0
2023-03-19T04:39:19.048Z,0
2023-03-19T04:40:22.723Z,0
2023-03-19T04:41:26.078Z,0
2023-03-19T04:43:32.358Z,0
2023-03-19T04:45:38.467Z,0
2023-03-19T04:46:41.538Z,0
2023-03-19T04:48:48.134Z,0
2023-03-19T04:50:55.784Z,0
2023-03-19T04:53:01.055Z,0
2023-03-19T04:54:04.676Z,0
2023-03-19T04:56:11.432Z,0
2023-03-19T04:58:18.243Z,0
2023-03-19T05:00:27.748Z,0
2023-03-19T05:01:31.330Z,0
2023-03-19T05:03:36.864Z,0
2023-03-19T05:05:44.011Z,0
2023-03-19T05:07:50.924Z,0
2023-03-19T05:08:53.981Z,0
2023-03-19T05:09:57.079Z,1
2023-03-19T05:11:00.088Z,1
2023-03-19T05:13:06.336Z,1
2023-03-19T05:14:08.817Z,1
2023-03-19T05:15:12.203Z,1
2023-03-19T05:16:15.318Z,2
2023-03-19T05:18:21.002Z,2
2023-03-19T05:19:24.107Z,2
2023-03-19T05:20:27.770Z,2
2023-03-19T05:21:31.434Z,3
2023-03-19T05:23:37.847Z,3
2023-03-19T05:24:41.480Z,4
2023-03-19T05:25:44.647Z,4
2023-03-19T05:26:47.840Z,4
2023-03-19T05:28:54.282Z,5
2023-03-19T05:31:01.087Z,6
2023-03-19T05:32:04.366Z,6
2023-03-19T05:34:10.947Z,7
2023-03-19T05:36:17.657Z,8
2023-03-19T05:38:25.275Z,9
2023-03-19T05:39:28.294Z,9
2023-03-19T05:41:34.810Z,10
2023-03-19T05:43:40.552Z,11
2023-03-19T05:45:45.804Z,13
2023-03-19T05:46:49.336Z,13
2023-03-19T05:48:54.991Z,15
2023-03-19T05:51:01.789Z,16
2023-03-19T05:53:07.456Z,17
2023-03-19T05:54:11.243Z,18
2023-03-19T05:56:16.846Z,20
2023-03-19T05:58:23.479Z,21
2023-03-19T06:00:30.165Z,23
2023-03-19T06:01:33.591Z,25
2023-03-19T06:03:41.148Z,27
2023-03-19T06:05:47.502Z,29
2023-03-19T06:07:54.075Z,32
2023-03-19T06:08:58.117Z,33
2023-03-19T06:10:01.906Z,34
2023-03-19T06:11:05.615Z,35
2023-03-19T06:13:11.200Z,36
2023-03-19T06:14:14.448Z,37
2023-03-19T06:15:17.169Z,39
2023-03-19T06:16:20.851Z,39
2023-03-19T06:18:27.759Z,42
2023-03-19T06:19:30.843Z,42
2023-03-19T06:20:36.047Z,43
2023-03-19T06:21:40.043Z,44
2023-03-19T06:23:45.981Z,44
2023-03-19T06:25:53.332Z,45
2023-03-19T06:27:59.401Z,46
2023-03-19T06:29:02.271Z,46
2023-03-19T06:31:09.154Z,47
2023-03-19T06:33:14.497Z,48
2023-03-19T06:35:21.360Z,49
2023-03-19T06:36:24.181Z,50
2023-03-19T06:38:30.413Z,52
2023-03-19T06:40:37.454Z,54
2023-03-19T06:42:43.970Z,55
2023-03-19T06:43:46.978Z,56
2023-03-19T06:45:57.503Z,58
2023-03-19T06:48:03.943Z,61
2023-03-19T06:50:09.715Z,66
2023-03-19T06:51:13.072Z,68
2023-03-19T06:52:16.726Z,71
2023-03-19T06:53:20.120Z,74
2023-03-19T06:55:26.966Z,80
2023-03-19T06:56:30.240Z,82
2023-03-19T06:57:34.075Z,82
2023-03-19T06:58:37.070Z,82
2023-03-19T07:00:43.229Z,76
2023-03-19T07:01:46.107Z,72
2023-03-19T07:02:49.476Z,69
2023-03-19T07:03:52.596Z,66
2023-03-19T07:05:59.267Z,65
2023-03-19T07:08:05.819Z,68
2023-03-19T07:09:08.585Z,70
2023-03-19T07:11:13.877Z,76
2023-03-19T07:13:21.540Z,77
2023-03-19T07:15:27.626Z,76
2023-03-19T07:16:31.174Z,76
2023-03-19T07:18:37.081Z,76
2023-03-19T07:20:43.493Z,76
2023-03-19T07:22:50.702Z,76
2023-03-19T07:23:54.011Z,77
2023-03-19T07:26:00.276Z,80
2023-03-19T07:28:06.614Z,83
2023-03-19T07:30:14.211Z,85
2023-03-19T07:31:17.791Z,86
2023-03-19T07:33:23.802Z,88
2023-03-19T07:35:30.012Z,90
2023-03-19T07:37:37.263Z,92
2023-03-19T07:38:40.538Z,94
2023-03-19T07:41:04.389Z,96
2023-03-19T07:42:07.169Z,98
2023-03-19T07:43:10.404Z,99
2023-03-19T07:45:16.913Z,101
2023-03-19T07:47:31.541Z,126
2023-03-19T07:48:34.819Z,134
2023-03-19T07:49:37.824Z,136
2023-03-19T07:50:40.828Z,139
2023-03-19T07:52:47.211Z,144
2023-03-19T07:53:49.925Z,132
2023-03-19T07:54:53.653Z,185
2023-03-19T07:55:56.851Z,375
2023-03-19T07:58:03.185Z,491
2023-03-19T08:00:11.302Z,465
2023-03-19T08:01:14.305Z,515
2023-03-19T08:03:21.019Z,408
2023-03-19T08:05:26.888Z,362
2023-03-19T08:07:32.706Z,403
2023-03-19T08:08:35.750Z,507
2023-03-19T08:10:43.199Z,573
2023-03-19T08:12:48.634Z,556
2023-03-19T08:14:54.557Z,567
2023-03-19T08:15:58.398Z,572
2023-03-19T08:18:05.134Z,609
2023-03-19T08:20:11.991Z,641
2023-03-19T08:22:18.687Z,668
2023-03-19T08:23:21.984Z,678
2023-03-19T08:25:27.958Z,695
2023-03-19T08:27:33.936Z,702
2023-03-19T08:29:39.692Z,704
2023-03-19T08:30:43.539Z,705
2023-03-19T08:32:51.604Z,716
2023-03-19T08:34:57.282Z,681
2023-03-19T08:37:03.891Z,656
2023-03-19T08:38:06.944Z,632
2023-03-19T08:40:13.235Z,655
2023-03-19T08:42:19.594Z,711
2023-03-19T08:44:26.128Z,720
2023-03-19T08:45:29.175Z,680
2023-03-19T08:46:33.267Z,646
2023-03-19T08:47:36.963Z,673
2023-03-19T08:49:46.116Z,693
2023-03-19T08:50:49.101Z,677
2023-03-19T08:51:52.203Z,595
2023-03-19T08:52:55.192Z,596
2023-03-19T08:55:00.429Z,591
2023-03-19T08:56:03.916Z,563
2023-03-19T08:57:07.271Z,631
2023-03-19T08:58:10.016Z,691
2023-03-19T09:00:16.653Z,740
2023-03-19T09:01:20.758Z,770
2023-03-19T09:02:25.116Z,791
2023-03-19T09:03:29.096Z,743
2023-03-19T09:05:35.814Z,859
2023-03-19T09:07:42.306Z,889
2023-03-19T09:09:48.609Z,895
2023-03-19T09:10:54.044Z,888
2023-03-19T09:13:01.187Z,887
2023-03-19T09:15:08.033Z,812
2023-03-19T09:17:14.620Z,721
2023-03-19T09:18:18.646Z,785
2023-03-19T09:20:25.478Z,846
2023-03-19T09:22:31.735Z,843
2023-03-19T09:24:42.639Z,881
2023-03-19T09:25:45.801Z,894
2023-03-19T09:27:53.161Z,901
2023-03-19T09:29:59.154Z,884
2023-03-19T09:32:06.530Z,933
2023-03-19T09:33:11.002Z,954
2023-03-19T09:34:14.541Z,969
2023-03-19T09:35:18.384Z,982
2023-03-19T09:37:25.287Z,919
2023-03-19T09:38:28.364Z,904
2023-03-19T09:39:32.110Z,899
2023-03-19T09:40:34.944Z,866
2023-03-19T09:41:38.038Z,835
2023-03-19T09:43:43.969Z,872
2023-03-19T09:45:50.594Z,944
2023-03-19T09:46:54.413Z,944
2023-03-19T09:49:00.625Z,946
2023-03-19T09:51:07.944Z,993
2023-03-19T09:52:12.024Z,1019
2023-03-19T09:53:15.129Z,1006
2023-03-19T09:54:18.237Z,1000
2023-03-19T09:55:21.619Z,1033
2023-03-19T09:56:24.430Z,1061
2023-03-19T09:57:27.709Z,1098
2023-03-19T09:59:33.964Z,1106
2023-03-19T10:00:37.242Z,1104
2023-03-19T10:02:43.548Z,1092
2023-03-19T10:03:46.418Z,1088
2023-03-19T10:05:53.013Z,1080
2023-03-19T10:08:00.588Z,1092
2023-03-19T10:09:03.690Z,1101
2023-03-19T10:10:07.226Z,1108
2023-03-19T10:11:10.608Z,1097
2023-03-19T10:13:16.763Z,1085
2023-03-19T10:14:19.571Z,1029
2023-03-19T10:16:25.555Z,897
2023-03-19T10:18:32.023Z,915
2023-03-19T10:19:41.253Z,915
2023-03-19T10:20:45.103Z,993
2023-03-19T10:21:49.133Z,943
2023-03-19T10:23:55.589Z,980
2023-03-19T10:26:02.263Z,1000
2023-03-19T10:27:05.014Z,1053
2023-03-19T10:29:11.725Z,1081
2023-03-19T10:31:19.498Z,891
2023-03-19T10:32:23.136Z,1131
2023-03-19T10:33:26.052Z,1122
2023-03-19T10:34:29.774Z,319
2023-03-19T10:35:34.448Z,1145
2023-03-19T10:36:37.657Z,1150
2023-03-19T10:37:41.423Z,1159
2023-03-19T10:39:48.899Z,1149
2023-03-19T10:40:51.504Z,639
2023-03-19T10:42:57.482Z,1198
2023-03-19T10:45:04.671Z,1207
2023-03-19T10:46:08.816Z,706
2023-03-19T10:47:12.612Z,604
2023-03-19T10:48:15.698Z,1025
2023-03-19T10:50:21.941Z,723
2023-03-19T10:51:25.671Z,623
2023-03-19T10:52:28.942Z,411
2023-03-19T10:53:32.414Z,1253
2023-03-19T10:55:38.933Z,392
2023-03-19T10:57:45.152Z,346
2023-03-19T10:58:48.490Z,383
2023-03-19T11:00:54.292Z,500
2023-03-19T11:03:00.804Z,349
2023-03-19T11:04:04.454Z,340
2023-03-19T11:06:11.336Z,323
2023-03-19T11:08:37.571Z,365
2023-03-19T11:10:44.985Z,597
2023-03-19T11:11:52.166Z,786
2023-03-19T11:13:59.481Z,1171
2023-03-19T11:16:05.913Z,1294
2023-03-19T11:17:09.638Z,1262
2023-03-19T11:19:16.840Z,616
2023-03-19T11:20:20.622Z,1242
2023-03-19T11:22:27.275Z,1112
2023-03-19T11:24:35.031Z,388
2023-03-19T11:25:39.360Z,343
2023-03-19T11:27:45.396Z,404
2023-03-19T11:29:50.836Z,1096
2023-03-19T11:30:54.027Z,316
2023-03-19T11:33:01.149Z,272
2023-03-19T11:35:07.127Z,501
2023-03-19T11:36:10.664Z,543
2023-03-19T11:38:17.191Z,793
2023-03-19T11:39:20.511Z,783
2023-03-19T11:40:27.053Z,860
2023-03-19T11:41:31.176Z,995
2023-03-19T11:42:33.909Z,703
2023-03-19T11:43:37.580Z,637
2023-03-19T11:44:40.848Z,624
2023-03-19T11:46:48.284Z,580
2023-03-19T11:47:51.412Z,675
2023-03-19T11:49:57.359Z,382
2023-03-19T11:51:00.192Z,405
2023-03-19T11:53:07.364Z,1015
2023-03-19T11:55:13.141Z,1240
2023-03-19T11:56:17.252Z,1106
2023-03-19T11:58:23.866Z,1149
2023-03-19T11:59:27.169Z,1130
2023-03-19T12:00:30.617Z,1149
2023-03-19T12:01:33.460Z,1142
2023-03-19T12:02:37.621Z,1126
2023-03-19T12:04:44.648Z,241
2023-03-19T12:06:50.582Z,834
2023-03-19T12:07:53.414Z,1018
2023-03-19T12:10:00.347Z,891
2023-03-19T12:11:03.743Z,711
2023-03-19T12:13:11.588Z,674
2023-03-19T12:14:15.593Z,1113
2023-03-19T12:16:22.164Z,456
2023-03-19T12:18:28.521Z,430
2023-03-19T12:19:31.877Z,409
2023-03-19T12:21:37.807Z,432
2023-03-19T12:22:40.809Z,441
2023-03-19T12:24:47.676Z,439
2023-03-19T12:25:51.748Z,485
2023-03-19T12:27:58.550Z,425
2023-03-19T12:30:09.122Z,590
2023-03-19T12:31:12.475Z,750
2023-03-19T12:32:16.006Z,976
2023-03-19T12:33:19.193Z,842
2023-03-19T12:34:22.857Z,862
2023-03-19T12:35:25.584Z,1076
2023-03-19T12:36:29.136Z,950
2023-03-19T12:38:35.861Z,996
2023-03-19T12:39:39.275Z,867
2023-03-19T12:41:45.081Z,612
2023-03-19T12:42:48.254Z,608
2023-03-19T12:43:51.365Z,586
2023-03-19T12:44:55.467Z,944
2023-03-19T12:47:04.093Z,523
2023-03-19T12:48:07.196Z,751
2023-03-19T12:50:13.574Z,703
2023-03-19T12:52:19.966Z,614
2023-03-19T12:53:23.237Z,598
2023-03-19T12:55:29.234Z,538
2023-03-19T12:57:34.967Z,423
2023-03-19T12:58:38.005Z,436
2023-03-19T13:00:45.635Z,303
2023-03-19T13:01:50.573Z,387
2023-03-19T13:02:54.204Z,323
2023-03-19T13:03:57.945Z,324
2023-03-19T13:06:04.726Z,316
2023-03-19T13:07:08.132Z,300
2023-03-19T13:09:16.644Z,381
2023-03-19T13:10:20.335Z,490
2023-03-19T13:11:23.179Z,460
2023-03-19T13:12:26.484Z,493
2023-03-19T13:13:29.313Z,338
2023-03-19T13:15:36.225Z,535
2023-03-19T13:17:43.558Z,543
2023-03-19T13:18:46.018Z,344
2023-03-19T13:20:51.812Z,325
2023-03-19T13:22:58.018Z,669
2023-03-19T13:24:01.962Z,411
2023-03-19T13:26:08.804Z,361
2023-03-19T13:28:14.446Z,304
2023-03-19T13:29:18.220Z,332
2023-03-19T13:31:26.157Z,338
2023-03-19T13:33:32.758Z,562
2023-03-19T13:34:35.830Z,581
2023-03-19T13:36:42.217Z,302
2023-03-19T13:38:48.738Z,247
2023-03-19T13:40:54.906Z,200
2023-03-19T13:41:58.055Z,187
2023-03-19T13:44:04.053Z,177
2023-03-19T13:46:10.433Z,184
2023-03-19T13:47:14.131Z,199
2023-03-19T13:48:27.085Z,184
2023-03-19T13:49:29.880Z,182
2023-03-19T13:51:37.188Z,205
2023-03-19T13:52:40.885Z,218
2023-03-19T13:53:43.950Z,240
2023-03-19T13:54:46.981Z,263
2023-03-19T13:56:52.980Z,419
2023-03-19T13:57:56.741Z,531
2023-03-19T14:00:03.339Z,247
2023-03-19T14:02:10.839Z,225
2023-03-19T14:03:17.701Z,216
2023-03-19T14:05:25.243Z,243
2023-03-19T14:07:31.004Z,270
2023-03-19T14:09:37.152Z,192
2023-03-19T14:10:39.596Z,182
2023-03-19T14:12:46.509Z,198
2023-03-19T14:14:53.028Z,240
2023-03-19T14:15:56.067Z,245
2023-03-19T14:18:03.582Z,218
2023-03-19T14:20:16.578Z,265
2023-03-19T14:21:25.016Z,221
2023-03-19T14:22:29.361Z,236
2023-03-19T14:23:48.240Z,341
2023-03-19T14:25:00.690Z,330
2023-03-19T14:26:04.419Z,260
2023-03-19T14:28:10.431Z,219
2023-03-19T14:30:16.707Z,241
2023-03-19T14:31:20.145Z,260
2023-03-19T14:33:26.270Z,283
2023-03-19T14:34:29.611Z,323
2023-03-19T14:35:34.204Z,313
2023-03-19T14:36:37.200Z,299
2023-03-19T14:38:43.663Z,242
2023-03-19T14:39:47.085Z,201
2023-03-19T14:41:53.071Z,200
2023-03-19T14:42:56.737Z,209
2023-03-19T14:45:02.883Z,199
2023-03-19T14:47:10.472Z,243
2023-03-19T14:48:13.474Z,213
2023-03-19T14:49:17.107Z,208
2023-03-19T14:50:19.869Z,168
2023-03-19T14:51:23.942Z,171
2023-03-19T14:52:27.315Z,179
2023-03-19T14:53:30.440Z,171
2023-03-19T14:55:39.231Z,177
2023-03-19T14:56:42.241Z,169
2023-03-19T14:57:45.099Z,136
2023-03-19T14:58:48.188Z,123
2023-03-19T15:00:54.424Z,127
2023-03-19T15:01:57.864Z,119
2023-03-19T15:04:04.740Z,108
2023-03-19T15:06:11.823Z,102
2023-03-19T15:07:15.933Z,102
2023-03-19T15:09:23.204Z,96
2023-03-19T15:11:29.052Z,93
2023-03-19T15:13:35.567Z,88
2023-03-19T15:14:38.944Z,84
2023-03-19T15:16:45.693Z,76
2023-03-19T15:18:06.172Z,72
2023-03-19T15:19:09.794Z,66
2023-03-19T15:20:13.797Z,61
2023-03-19T15:22:21.456Z,55
2023-03-19T15:23:30.180Z,51
2023-03-19T15:24:33.350Z,48
2023-03-19T15:25:38.136Z,43
2023-03-19T15:27:45.073Z,36
2023-03-19T15:28:49.976Z,34
2023-03-19T15:30:14.192Z,32
2023-03-19T15:32:11.618Z,30
2023-03-19T15:33:47.513Z,27
2023-03-19T15:35:55.962Z,23
2023-03-19T15:38:03.061Z,21
2023-03-19T15:39:06.414Z,20
2023-03-19T15:41:12.387Z,16
2023-03-19T15:43:18.287Z,14
2023-03-19T15:44:21.278Z,13
2023-03-19T15:45:24.973Z,13
2023-03-19T15:46:29.011Z,12
2023-03-19T15:48:35.267Z,12
2023-03-19T15:49:38.974Z,12
2023-03-19T15:51:44.548Z,10
2023-03-19T15:53:52.349Z,8
2023-03-19T15:55:58.398Z,7
2023-03-19T15:57:02.185Z,6
2023-03-19T15:59:09.010Z,5
2023-03-19T16:01:15.647Z,5
2023-03-19T16:02:19.371Z,5
2023-03-19T16:04:25.102Z,4
2023-03-19T16:06:30.878Z,3
2023-03-19T16:07:33.972Z,3
2023-03-19T16:09:41.066Z,4
2023-03-19T16:11:47.403Z,5
2023-03-19T16:12:50.911Z,5
2023-03-19T16:13:53.782Z,6
2023-03-19T16:14:57.110Z,7
2023-03-19T16:17:03.394Z,8
2023-03-19T16:18:06.505Z,9
2023-03-19T16:20:13.034Z,11
2023-03-19T16:22:19.829Z,10
2023-03-19T16:23:22.940Z,9
2023-03-19T16:25:29.885Z,6
2023-03-19T16:26:33.287Z,5
2023-03-19T16:27:36.680Z,4
2023-03-19T16:28:39.684Z,4
2023-03-19T16:30:46.565Z,3
2023-03-19T16:31:49.654Z,3
2023-03-19T16:33:55.871Z,2
2023-03-19T16:36:02.551Z,2
2023-03-19T16:37:05.076Z,2
2023-03-19T16:39:11.101Z,2
2023-03-19T16:41:18.464Z,2
2023-03-19T16:42:21.460Z,2
2023-03-19T16:44:28.827Z,2
2023-03-19T16:46:37.013Z,2
2023-03-19T16:47:40.376Z,2
2023-03-19T16:48:43.386Z,2
2023-03-19T16:49:46.879Z,3
2023-03-19T16:51:53.357Z,3
2023-03-19T16:52:56.380Z,4
2023-03-19T16:53:59.188Z,4
2023-03-19T16:55:01.662Z,4
2023-03-19T16:57:08.998Z,4
2023-03-19T16:59:15.068Z,3
2023-03-19T17:00:18.093Z,3
2023-03-19T17:02:25.170Z,4
2023-03-19T17:04:31.550Z,6
2023-03-19T17:06:39.172Z,8
2023-03-19T17:07:42.162Z,8
2023-03-19T17:09:49.348Z,7
2023-03-19T17:11:56.105Z,6
2023-03-19T17:14:02.571Z,6
2023-03-19T17:15:06.286Z,6
2023-03-19T17:17:12.303Z,7
2023-03-19T17:19:19.447Z,8
2023-03-19T17:20:22.830Z,8
2023-03-19T17:21:26.493Z,8
2023-03-19T17:22:30.856Z,7
2023-03-19T17:24:37.380Z,4
2023-03-19T17:25:41.002Z,4
2023-03-19T17:26:44.468Z,5
2023-03-19T17:27:47.912Z,5
2023-03-19T17:29:55.053Z,4
2023-03-19T17:32:02.067Z,4
2023-03-19T17:33:05.787Z,4
2023-03-19T17:35:11.338Z,3
2023-03-19T17:37:17.329Z,1
2023-03-19T17:38:20.452Z,1
2023-03-19T17:40:26.137Z,0
2023-03-19T17:42:32.120Z,0
2023-03-19T17:44:39.924Z,0
2023-03-19T17:45:42.990Z,0
2023-03-19T17:47:49.364Z,0
2023-03-19T17:49:56.244Z,0
2023-03-19T17:52:02.817Z,0
2023-03-19T17:53:05.921Z,0
2023-03-19T17:55:11.389Z,0
2023-03-19T17:57:18.523Z,0
2023-03-19T17:59:25.525Z,0
2023-03-19T18:00:29.645Z,0
2023-03-19T18:02:35.843Z,0
2023-03-19T18:04:42.635Z,0
2023-03-19T18:05:46.063Z,0
2023-03-19T18:06:48.793Z,0
2023-03-19T18:07:51.586Z,0
2023-03-19T18:09:57.649Z,0
2023-03-19T18:12:03.809Z,0
2023-03-19T18:13:09.442Z,0
2023-03-19T18:15:15.588Z,0
2023-03-19T18:17:23.415Z,0
2023-03-19T18:19:29.782Z,0
2023-03-19T18:20:34.734Z,0
2023-03-19T18:22:40.793Z,0
2023-03-19T18:24:48.110Z,0
2023-03-19T18:26:54.820Z,0
2023-03-19T18:27:57.958Z,0
2023-03-19T18:30:03.475Z,0
2023-03-19T18:32:10.992Z,0
2023-03-19T18:33:14.841Z,0
2023-03-19T18:34:18.334Z,0
2023-03-19T18:35:21.701Z,0
2023-03-19T18:37:29.285Z,0
2023-03-19T18:38:32.637Z,0
2023-03-19T18:39:35.793Z,0
2023-03-19T18:40:39.913Z,0
2023-03-19T18:42:46.093Z,0
2023-03-19T18:44:52.263Z,0
2023-03-19T18:45:55.781Z,0
2023-03-19T18:48:02.767Z,0
2023-03-19T18:50:08.753Z,0
2023-03-19T18:51:12.215Z,0
2023-03-19T18:52:20.316Z,0
2023-03-19T18:53:23.716Z,0
2023-03-19T18:55:30.591Z,0
2023-03-19T18:57:36.732Z,0
2023-03-19T18:58:40.162Z,0
2023-03-19T19:00:46.577Z,0
2023-03-19T19:02:53.061Z,0
2023-03-19T19:05:00.635Z,0
2023-03-19T19:06:03.478Z,0
2023-03-19T19:08:09.951Z,0
2023-03-19T19:09:13.794Z,0
2023-03-19T19:10:17.189Z,0
2023-03-19T19:11:20.864Z,0
2023-03-19T19:13:27.659Z,0
2023-03-19T19:15:33.548Z,0
2023-03-19T19:16:36.986Z,0
2023-03-19T19:18:42.431Z,0
2023-03-19T19:20:49.255Z,0
2023-03-19T19:22:54.709Z,0
2023-03-19T19:23:57.693Z,0
2023-03-19T19:26:04.081Z,0
2023-03-19T19:28:10.135Z,0
2023-03-19T19:29:13.612Z,0
2023-03-19T19:31:20.324Z,0
2023-03-19T19:33:26.641Z,0
2023-03-19T19:35:33.800Z,0
2023-03-19T19:36:37.435Z,0
2023-03-19T19:38:43.430Z,0
2023-03-19T19:40:49.660Z,0
2023-03-19T19:42:55.297Z,0
2023-03-19T19:43:57.949Z,0
2023-03-19T19:46:04.330Z,0
2023-03-19T19:47:14.757Z,0
2023-03-19T19:48:17.666Z,0
2023-03-19T19:50:24.242Z,0
2023-03-19T19:51:28.382Z,0
2023-03-19T19:53:37.042Z,0
2023-03-19T19:55:43.660Z,0
2023-03-19T19:57:50.280Z,0
2023-03-19T19:58:53.177Z,0
2023-03-19T20:01:06.718Z,0
2023-03-19T20:02:09.697Z,0
2023-03-19T20:03:12.502Z,0
2023-03-19T20:05:19.001Z,0
2023-03-19T20:06:22.459Z,0
2023-03-19T20:07:26.777Z,0
2023-03-19T20:08:30.226Z,0
2023-03-19T20:10:36.123Z,0
2023-03-19T20:12:46.333Z,0
2023-03-19T20:13:49.401Z,0
2023-03-19T20:15:56.085Z,0
2023-03-19T20:18:02.519Z,0
2023-03-19T20:20:08.209Z,0
2023-03-19T20:21:10.637Z,0
2023-03-19T20:23:17.359Z,0
2023-03-19T20:25:23.848Z,0
2023-03-19T20:27:29.887Z,0
2023-03-19T20:28:33.381Z,0
2023-03-19T20:30:39.282Z,0
2023-03-19T20:32:44.768Z,0
2023-03-19T20:33:48.161Z,0
2023-03-19T20:34:51.527Z,0
2023-03-19T20:35:54.882Z,0
2023-03-19T20:38:01.613Z,0
2023-03-19T20:39:05.732Z,0
2023-03-19T20:40:08.837Z,0
2023-03-19T20:41:12.473Z,0
2023-03-19T20:43:19.317Z,0
2023-03-19T20:44:22.736Z,0
2023-03-19T20:45:25.824Z,0
2023-03-19T20:46:29.006Z,0
2023-03-19T20:48:35.185Z,0
2023-03-19T20:49:38.525Z,0
2023-03-19T20:51:45.617Z,0
2023-03-19T20:53:52.577Z,0
2023-03-19T20:56:00.197Z,0
2023-03-19T20:57:03.614Z,0
2023-03-19T20:59:08.768Z,0
2023-03-19T21:01:15.225Z,0
2023-03-19T21:02:19.013Z,0
2023-03-19T21:03:22.451Z,0
2023-03-19T21:04:25.634Z,0
2023-03-19T21:06:55.662Z,0
2023-03-19T21:09:02.477Z,0
2023-03-19T21:10:06.443Z,0
2023-03-19T21:12:12.557Z,0
2023-03-19T21:14:19.036Z,0
2023-03-19T21:15:22.792Z,0
2023-03-19T21:16:27.011Z,0
2023-03-19T21:17:30.242Z,0
2023-03-19T21:19:36.601Z,0
2023-03-19T21:20:39.041Z,0
2023-03-19T21:21:42.120Z,0
2023-03-19T21:22:45.282Z,0
2023-03-19T21:24:52.105Z,0
2023-03-19T21:25:56.404Z,0
2023-03-19T21:28:02.915Z,0
2023-03-19T21:30:08.894Z,0
2023-03-19T21:31:12.716Z,0
2023-03-19T21:32:16.200Z,0
2023-03-19T21:33:19.828Z,0
2023-03-19T21:35:25.449Z,0
2023-03-19T21:37:31.957Z,0
2023-03-19T21:38:34.994Z,0
2023-03-19T21:39:38.124Z,0
2023-03-19T21:40:41.608Z,0
2023-03-19T21:42:48.606Z,0
2023-03-19T21:43:52.060Z,0
2023-03-19T21:44:54.284Z,0
2023-03-19T21:45:57.642Z,0
2023-03-19T21:48:04.073Z,0
2023-03-19T21:49:07.149Z,0
2023-03-19T21:50:10.440Z,0
2023-03-19T21:51:13.157Z,0
2023-03-19T21:53:18.424Z,0
2023-03-19T21:54:20.693Z,0
2023-03-19T21:56:27.340Z,0
2023-03-19T21:58:34.927Z,0
2023-03-19T22:00:40.564Z,0
2023-03-19T22:01:43.476Z,0
2023-03-19T22:03:49.155Z,0
2023-03-19T22:05:54.722Z,0
2023-03-19T22:08:00.719Z,0
2023-03-19T22:09:03.453Z,0
2023-03-19T22:11:09.862Z,0
2023-03-19T22:13:17.055Z,0
2023-03-19T22:15:22.858Z,0
2023-03-19T22:16:27.071Z,0
2023-03-19T22:18:34.601Z,0
2023-03-19T22:20:40.475Z,0
2023-03-19T22:22:47.116Z,0
2023-03-19T22:23:50.565Z,0
2023-03-19T22:25:55.837Z,0
2023-03-19T22:28:01.854Z,0
2023-03-19T22:29:06.033Z,0
2023-03-19T22:31:12.153Z,0
2023-03-19T22:33:18.848Z,0
2023-03-19T22:35:25.674Z,0
2023-03-19T22:36:29.060Z,0
2023-03-19T22:38:36.222Z,0
2023-03-19T22:40:41.955Z,0
2023-03-19T22:42:48.460Z,0
2023-03-19T22:43:51.580Z,0
2023-03-19T22:45:58.449Z,0
2023-03-19T22:48:05.509Z,0
2023-03-19T22:49:08.682Z,0
2023-03-19T22:51:15.321Z,0
2023-03-19T22:53:22.156Z,0
2023-03-19T22:55:28.978Z,0
2023-03-19T22:56:32.066Z,0
2023-03-19T22:58:37.742Z,0
2023-03-19T23:00:44.672Z,0
2023-03-19T23:02:50.713Z,0
2023-03-19T23:03:54.243Z,0
2023-03-19T23:06:00.591Z,0
2023-03-19T23:08:08.320Z,0
2023-03-19T23:09:11.035Z,0
2023-03-19T23:10:14.370Z,0
2023-03-19T23:11:17.201Z,0